PATL/TLJ METAR and TAF weather

Enter ICAO airport designator
Station Type Date Time Source
PATL METAR 2020/01/21 08:55 UTC NOAA

PATL 210855Z AUTO VRB03KT 10SM FEW150 M25/M28 A2951 RMK AO2 SLP043 T12541279 52008


Station Type Date Time Source
PATL Decoded METAR 2020/01/21 08:55 UTC NOAA

Takotna, Tatalina LRRS Airport, AK, United States (PATL) 62-54N 155-59W
Jan 21, 2020 - 03:55 AM EST / 2020.01.21 0855 UTC
Wind: Variable at 3 MPH (3 KT):0
Visibility: 10 mile(s):0
Sky conditions: mostly clear
Temperature: -13.7 F (-25.4 C)
Dew Point: -18.2 F (-27.9 C)
Relative Humidity: 79%
Pressure (altimeter): 29.51 in. Hg (999 hPa)
Pressure tendency: 0.02 inches (0.8 hPa) higher than three hours ago
ob: PATL 210855Z AUTO VRB03KT 10SM FEW150 M25/M28 A2951 RMK AO2 SLP043 T12541279 52008
cycle: 9

Station Type Date Time Source
PATL TAF 2012/01/12 14:06 UTC NOAA

TAF PATL 1214/1320 VRB06KT 9999 FEW050 SCT110 QNH2998INS TM26/1300Z TM32/1315Z

Example: see airport list